createdAt,value
2022-09-10T00:00:32.329Z,102186.63
2022-09-10T00:03:00.004Z,102186.69
2022-09-10T00:05:27.762Z,102182.41
2022-09-10T00:07:55.441Z,102193.03
2022-09-10T00:10:25.202Z,102186.19
2022-09-10T00:12:52.790Z,102183.69
2022-09-10T00:15:20.398Z,102178.53
2022-09-10T00:17:47.976Z,102186.28
2022-09-10T00:20:15.709Z,102178.53
2022-09-10T00:22:43.295Z,102177.56
2022-09-10T00:25:11.927Z,102175.06
2022-09-10T00:27:40.917Z,102175.16
2022-09-10T00:30:09.127Z,102170.00
2022-09-10T00:32:38.431Z,102174.38
2022-09-10T00:35:07.346Z,102172.72
2022-09-10T00:37:34.951Z,102180.47
2022-09-10T00:40:02.925Z,102175.31
2022-09-10T00:42:30.726Z,102172.75
2022-09-10T00:45:04.283Z,102171.06
2022-09-10T00:47:34.345Z,102172.03
2022-09-10T00:50:05.556Z,102175.56
2022-09-10T00:52:37.589Z,102178.22
2022-09-10T00:55:07.854Z,102170.50
2022-09-10T00:57:35.457Z,102166.19
2022-09-10T01:00:07.199Z,102165.31
2022-09-10T01:02:36.006Z,102163.78
2022-09-10T01:05:05.271Z,102163.88
2022-09-10T01:07:33.721Z,102164.72
2022-09-10T01:10:03.552Z,102162.34
2022-09-10T01:12:46.376Z,102165.84
2022-09-10T01:15:23.815Z,102165.03
2022-09-10T01:18:03.439Z,102160.78
2022-09-10T01:20:52.291Z,102159.97
2022-09-10T01:23:31.338Z,102154.72
2022-09-10T01:26:04.924Z,102155.59
2022-09-10T01:28:36.787Z,102149.38
2022-09-10T01:31:11.451Z,102146.88
2022-09-10T01:33:43.074Z,102151.25
2022-09-10T01:36:14.775Z,102144.47
2022-09-10T01:38:42.825Z,102145.38
2022-09-10T01:41:10.839Z,102149.81
2022-09-10T01:43:41.964Z,102139.47
2022-09-10T01:46:21.541Z,102137.81
2022-09-10T01:48:59.660Z,102143.91
2022-09-10T01:51:33.722Z,102140.66
2022-09-10T01:54:11.207Z,102136.44
2022-09-10T01:56:41.623Z,102139.94
2022-09-10T01:59:19.124Z,102133.91
2022-09-10T02:01:49.084Z,102133.13
2022-09-10T02:04:18.378Z,102135.75
2022-09-10T02:06:48.386Z,102127.06
2022-09-10T02:09:16.339Z,102131.44
2022-09-10T02:11:45.123Z,102132.44
2022-09-10T02:14:14.320Z,102128.06
2022-09-10T02:16:44.031Z,102127.25
2022-09-10T02:19:11.790Z,102128.16
2022-09-10T02:21:39.486Z,102126.47
2022-09-10T02:24:08.247Z,102129.06
2022-09-10T02:26:37.090Z,102135.03
2022-09-10T02:29:05.286Z,102129.88
2022-09-10T02:31:34.330Z,102128.34
2022-09-10T02:34:03.311Z,102125.69
2022-09-10T02:36:31.879Z,102123.97
2022-09-10T02:38:59.525Z,102123.25
2022-09-10T02:41:27.609Z,102124.19
2022-09-10T02:43:55.517Z,102124.25
2022-09-10T02:46:23.942Z,102125.16
2022-09-10T02:48:54.931Z,102129.63
2022-09-10T02:51:22.610Z,102128.75
2022-09-10T02:53:50.331Z,102125.25
2022-09-10T02:56:19.591Z,102125.22
2022-09-10T02:58:47.202Z,102123.59
2022-09-10T03:01:15.785Z,102119.28
2022-09-10T03:03:43.787Z,102126.19
2022-09-10T03:06:12.751Z,102122.72
2022-09-10T03:08:40.496Z,102113.25
2022-09-10T03:11:08.251Z,102116.69
2022-09-10T03:13:36.252Z,102115.03
2022-09-10T03:16:04.741Z,102107.22
2022-09-10T03:18:32.451Z,102110.69
2022-09-10T03:21:09.009Z,102105.50
2022-09-10T03:23:38.019Z,102115.84
2022-09-10T03:26:06.201Z,102108.13
2022-09-10T03:28:34.102Z,102105.63
2022-09-10T03:31:02.133Z,102103.16
2022-09-10T03:33:29.736Z,102107.63
2022-09-10T03:35:57.331Z,102106.13
2022-09-10T03:38:25.340Z,102109.63
2022-09-10T03:40:54.594Z,102109.59
2022-09-10T03:43:23.026Z,102103.50
2022-09-10T03:45:50.971Z,102105.31
2022-09-10T03:48:19.025Z,102103.72
2022-09-10T03:50:46.895Z,102104.63
2022-09-10T03:53:14.783Z,102102.13
2022-09-10T03:55:44.053Z,102098.66
2022-09-10T03:58:13.367Z,102107.31
2022-09-10T04:00:41.029Z,102106.41
2022-09-10T04:03:08.861Z,102102.94
2022-09-10T04:05:40.475Z,102119.38
2022-09-10T04:08:09.902Z,102118.59
2022-09-10T04:10:37.804Z,102117.78
2022-09-10T04:13:05.606Z,102113.59
2022-09-10T04:15:34.854Z,102108.31
2022-09-10T04:18:02.465Z,102105.75
2022-09-10T04:20:30.062Z,102113.59
2022-09-10T04:22:57.750Z,102115.28
2022-09-10T04:25:25.397Z,102105.72
2022-09-10T04:27:53.178Z,102107.44
2022-09-10T04:30:20.865Z,102106.59
2022-09-10T04:32:50.405Z,102102.25
2022-09-10T04:35:19.332Z,102107.59
2022-09-10T04:37:47.002Z,102108.53
2022-09-10T04:40:14.682Z,102099.75
2022-09-10T04:42:42.297Z,102098.63
2022-09-10T04:45:10.777Z,102096.88
2022-09-10T04:47:38.450Z,102096.16
2022-09-10T04:50:08.167Z,102090.88
2022-09-10T04:52:36.091Z,102097.69
2022-09-10T04:55:03.706Z,102088.91
2022-09-10T04:57:31.302Z,102099.25
2022-09-10T04:59:58.909Z,102098.38
2022-09-10T05:02:26.530Z,102098.28
2022-09-10T05:04:54.356Z,102098.19
2022-09-10T05:07:23.314Z,102096.28
2022-09-10T05:09:50.896Z,102087.50
2022-09-10T05:12:19.834Z,102097.66
2022-09-10T05:14:48.712Z,102093.97
2022-09-10T05:17:16.527Z,102103.16
2022-09-10T05:19:44.165Z,102098.59
2022-09-10T05:22:11.783Z,102092.34
2022-09-10T05:24:40.751Z,102088.66
2022-09-10T05:27:08.755Z,102092.66
2022-09-10T05:29:36.372Z,102093.22
2022-09-10T05:32:04.142Z,102087.81
2022-09-10T05:34:31.819Z,102093.69
2022-09-10T05:36:59.410Z,102094.28
2022-09-10T05:39:27.007Z,102097.41
2022-09-10T05:41:57.283Z,102091.09
2022-09-10T05:44:24.882Z,102085.69
2022-09-10T05:46:52.599Z,102083.66
2022-09-10T05:49:20.184Z,102090.31
2022-09-10T05:51:47.800Z,102090.84
2022-09-10T05:54:16.205Z,102089.66
2022-09-10T05:56:43.811Z,102090.19
2022-09-10T05:59:12.793Z,102086.31
2022-09-10T06:01:40.370Z,102086.91
2022-09-10T06:04:07.998Z,102081.28
2022-09-10T06:06:35.587Z,102086.03
2022-09-10T06:09:03.197Z,102083.84
2022-09-10T06:11:30.814Z,102087.81
2022-09-10T06:13:58.531Z,102086.53
2022-09-10T06:16:27.735Z,102087.91
2022-09-10T06:18:55.490Z,102090.16
2022-09-10T06:21:28.182Z,102092.38
2022-09-10T06:23:56.127Z,102086.81
2022-09-10T06:26:23.919Z,102088.97
2022-09-10T06:28:51.494Z,102086.00
2022-09-10T06:31:19.827Z,102079.53
2022-09-10T06:33:49.892Z,102082.81
2022-09-10T06:36:17.592Z,102085.00
2022-09-10T06:38:45.583Z,102083.81
2022-09-10T06:41:13.931Z,102078.28
2022-09-10T06:43:41.645Z,102079.81
2022-09-10T06:46:32.026Z,102079.56
2022-09-10T06:49:02.881Z,102077.31
2022-09-10T06:51:31.025Z,102074.31
2022-09-10T06:53:58.779Z,102084.41
2022-09-10T06:56:26.386Z,102079.81
2022-09-10T06:58:53.966Z,102080.38
2022-09-10T07:01:23.839Z,102076.50
2022-09-10T07:03:55.330Z,102082.16
2022-09-10T07:06:24.734Z,102073.94
2022-09-10T07:08:54.730Z,102069.13
2022-09-10T07:11:22.328Z,102070.47
2022-09-10T07:13:51.829Z,102072.63
2022-09-10T07:16:19.610Z,102076.56
2022-09-10T07:18:49.020Z,102081.44
2022-09-10T07:21:17.126Z,102073.31
2022-09-10T07:23:48.431Z,102068.63
2022-09-10T07:26:16.978Z,102078.78
2022-09-10T07:28:44.870Z,102080.94
2022-09-10T07:31:14.386Z,102077.09
2022-09-10T07:33:42.201Z,102073.41
2022-09-10T07:36:11.389Z,102074.72
2022-09-10T07:38:39.091Z,102072.66
2022-09-10T07:41:10.137Z,102080.03
2022-09-10T07:43:39.003Z,102070.84
2022-09-10T07:46:07.142Z,102069.50
2022-09-10T07:48:35.112Z,102062.94
2022-09-10T07:51:03.645Z,102069.50
2022-09-10T07:53:31.282Z,102069.00
2022-09-10T07:55:59.521Z,102079.00
2022-09-10T07:58:28.499Z,102074.09
2022-09-10T08:00:56.249Z,102082.16
2022-09-10T08:03:23.891Z,102077.25
2022-09-10T08:05:51.473Z,102076.56
2022-09-10T08:08:20.077Z,102075.06
2022-09-10T08:10:48.662Z,102075.41
2022-09-10T08:13:16.415Z,102077.09
2022-09-10T08:15:45.562Z,102079.09
2022-09-10T08:18:14.111Z,102067.97
2022-09-10T08:20:41.962Z,102074.38
2022-09-10T08:23:10.751Z,102074.72
2022-09-10T08:25:38.417Z,102079.25
2022-09-10T08:28:06.114Z,102065.34
2022-09-10T08:30:33.739Z,102068.09
2022-09-10T08:33:02.738Z,102062.28
2022-09-10T08:35:30.335Z,102064.19
2022-09-10T08:37:58.037Z,102066.72
2022-09-10T08:40:25.679Z,102065.88
2022-09-10T08:42:53.645Z,102063.34
2022-09-10T08:45:23.551Z,102062.91
2022-09-10T08:47:56.958Z,102054.88
2022-09-10T08:50:29.992Z,102063.25
2022-09-10T08:53:00.451Z,102051.03
2022-09-10T08:55:30.552Z,102052.06
2022-09-10T08:58:00.474Z,102050.28
2022-09-10T09:00:34.172Z,102040.25
2022-09-10T09:03:04.790Z,102040.69
2022-09-10T09:05:38.215Z,102031.97
2022-09-10T09:08:06.265Z,102036.41
2022-09-10T09:10:40.929Z,102031.88
2022-09-10T09:13:27.115Z,102033.44
2022-09-10T09:16:00.710Z,102034.06
2022-09-10T09:18:32.518Z,102030.75
2022-09-10T09:21:07.013Z,102037.44
2022-09-10T09:23:57.063Z,102027.34
2022-09-10T09:26:34.867Z,102026.31
2022-09-10T09:29:05.405Z,102033.25
2022-09-10T09:31:39.151Z,102027.13
2022-09-10T09:34:08.360Z,102026.91
2022-09-10T09:36:40.118Z,102033.81
2022-09-10T09:39:14.337Z,102020.63
2022-09-10T09:41:46.277Z,102022.13
2022-09-10T09:44:18.194Z,102010.59
2022-09-10T09:46:45.807Z,102009.91
2022-09-10T09:49:16.216Z,102017.22
2022-09-10T09:51:46.374Z,102001.97
2022-09-10T09:54:56.734Z,102019.50
2022-09-10T09:57:15.892Z,102010.75
2022-09-10T09:59:43.547Z,102013.88
2022-09-10T10:02:13.127Z,102006.69
2022-09-10T10:04:42.543Z,102007.44
2022-09-10T10:07:12.031Z,102008.03
2022-09-10T10:09:43.425Z,102002.03
2022-09-10T10:12:19.910Z,102006.19
2022-09-10T10:14:47.692Z,102004.84
2022-09-10T10:17:29.694Z,102003.28
2022-09-10T10:19:59.013Z,102003.75
2022-09-10T10:22:30.262Z,102003.03
2022-09-10T10:24:57.914Z,102005.19
2022-09-10T10:27:33.365Z,102001.69
2022-09-10T10:30:02.562Z,102001.56
2022-09-10T10:32:39.079Z,101995.94
2022-09-10T10:35:16.577Z,101994.97
2022-09-10T10:37:52.650Z,101991.28
2022-09-10T10:40:27.370Z,101994.63
2022-09-10T10:43:00.315Z,101986.97
2022-09-10T10:45:36.640Z,101985.22
2022-09-10T10:48:05.459Z,101981.00
2022-09-10T10:50:36.911Z,101981.03
2022-09-10T10:53:16.535Z,101974.66
2022-09-10T10:55:48.122Z,101976.47
2022-09-10T10:58:24.278Z,101970.69
2022-09-10T11:00:55.006Z,101958.25
2022-09-10T11:03:26.371Z,101961.03
2022-09-10T11:05:56.130Z,101954.31
2022-09-10T11:08:28.459Z,101965.88
2022-09-10T11:11:00.495Z,101966.47
2022-09-10T11:13:32.418Z,101964.91
2022-09-10T11:16:05.580Z,101966.09
2022-09-10T11:18:35.477Z,101960.22
2022-09-10T11:21:06.237Z,101962.16
2022-09-10T11:23:38.430Z,101964.66
2022-09-10T11:26:08.749Z,101960.84
2022-09-10T11:28:37.653Z,101962.75
2022-09-10T11:31:12.061Z,101962.75
2022-09-10T11:33:46.209Z,101950.59
2022-09-10T11:36:20.162Z,101959.47
2022-09-10T11:38:55.815Z,101955.41
2022-09-10T11:41:24.110Z,101960.47
2022-09-10T11:43:53.746Z,101955.41
2022-09-10T11:46:23.723Z,101961.66
2022-09-10T11:48:54.980Z,101953.84
2022-09-10T11:51:24.848Z,101955.28
2022-09-10T11:53:54.754Z,101957.06
2022-09-10T11:56:29.056Z,101949.88
2022-09-10T11:59:04.841Z,101950.72
2022-09-10T12:01:44.110Z,101946.13
2022-09-10T12:04:35.737Z,101949.88
2022-09-10T12:07:12.151Z,101939.41
2022-09-10T12:09:46.850Z,101941.94
2022-09-10T12:12:19.228Z,101943.25
2022-09-10T12:14:47.564Z,101941.59
2022-09-10T12:17:17.025Z,101936.78
2022-09-10T12:19:47.253Z,101934.00
2022-09-10T12:22:20.439Z,101938.22
2022-09-10T12:24:54.709Z,101927.38
2022-09-10T12:27:22.580Z,101928.44
2022-09-10T12:29:50.302Z,101924.72
2022-09-10T12:32:28.607Z,101921.25
2022-09-10T12:35:17.351Z,101923.53
2022-09-10T12:37:44.985Z,101917.38
2022-09-10T12:40:32.087Z,101920.88
2022-09-10T12:43:21.057Z,101922.78
2022-09-10T12:46:02.072Z,101915.84
2022-09-10T12:48:30.343Z,101916.91
2022-09-10T12:51:00.537Z,101919.66
2022-09-10T12:53:46.544Z,101917.28
2022-09-10T12:56:38.226Z,101914.78
2022-09-10T12:59:19.377Z,101919.78
2022-09-10T13:01:48.275Z,101908.38
2022-09-10T13:04:21.554Z,101915.47
2022-09-10T13:06:49.363Z,101908.75
2022-09-10T13:09:18.957Z,101916.56
2022-09-10T13:11:49.707Z,101912.13
2022-09-10T13:14:22.322Z,101915.84
2022-09-10T13:16:49.914Z,101918.72
2022-09-10T13:19:51.057Z,101916.44
2022-09-10T13:22:49.078Z,101911.50
2022-09-10T13:25:27.759Z,101912.25
2022-09-10T13:27:55.381Z,101910.22
2022-09-10T13:30:24.537Z,101911.75
2022-09-10T13:32:53.296Z,101910.78
2022-09-10T13:35:29.654Z,101906.94
2022-09-10T13:38:12.086Z,101911.28
2022-09-10T13:41:13.140Z,101910.28
2022-09-10T13:43:48.814Z,101904.06
2022-09-10T13:46:24.803Z,101895.03
2022-09-10T13:48:53.998Z,101902.38
2022-09-10T13:51:26.109Z,101901.28
2022-09-10T13:53:54.519Z,101894.47
2022-09-10T13:56:23.004Z,101899.75
2022-09-10T13:58:51.499Z,101898.41
2022-09-10T14:01:19.232Z,101892.28
2022-09-10T14:03:48.239Z,101895.06
2022-09-10T14:06:17.655Z,101885.53
2022-09-10T14:08:49.503Z,101889.28
2022-09-10T14:11:18.936Z,101891.06
2022-09-10T14:13:48.663Z,101893.72
2022-09-10T14:16:19.418Z,101885.66
2022-09-10T14:18:51.014Z,101887.50
2022-09-10T14:21:19.629Z,101890.13
2022-09-10T14:23:48.594Z,101884.00
2022-09-10T14:26:23.469Z,101881.47
2022-09-10T14:28:52.595Z,101883.38
2022-09-10T14:31:22.085Z,101883.88
2022-09-10T14:33:51.226Z,101886.72
2022-09-10T14:36:21.947Z,101884.06
2022-09-10T14:38:57.636Z,101887.94
2022-09-10T14:41:26.737Z,101889.84
2022-09-10T14:44:09.173Z,101888.41
2022-09-10T14:46:51.553Z,101875.31
2022-09-10T14:49:25.353Z,101888.53
2022-09-10T14:51:52.962Z,101887.09
2022-09-10T14:54:20.707Z,101880.50
2022-09-10T14:56:48.850Z,101889.13
2022-09-10T14:59:17.535Z,101885.78
2022-09-10T15:01:48.140Z,101888.41
2022-09-10T15:04:16.570Z,101886.00
2022-09-10T15:06:45.566Z,101889.59
2022-09-10T15:09:13.722Z,101885.28
2022-09-10T15:11:44.471Z,101881.78
2022-09-10T15:14:15.311Z,101880.34
2022-09-10T15:16:43.932Z,101876.84
2022-09-10T15:19:12.426Z,101886.47
2022-09-10T15:21:40.225Z,101883.22
2022-09-10T15:24:10.208Z,101884.19
2022-09-10T15:26:38.371Z,101885.97
2022-09-10T15:29:06.030Z,101884.53
2022-09-10T15:31:33.651Z,101889.09
2022-09-10T15:34:01.267Z,101884.66
2022-09-10T15:36:29.211Z,101887.19
2022-09-10T15:38:59.652Z,101881.91
2022-09-10T15:41:29.863Z,101883.81
2022-09-10T15:43:57.854Z,101885.72
2022-09-10T15:46:25.738Z,101885.03
2022-09-10T15:48:53.716Z,101887.66
2022-09-10T15:51:23.102Z,101894.63
2022-09-10T15:53:51.490Z,101885.94
2022-09-10T15:56:19.774Z,101888.81
2022-09-10T15:58:52.714Z,101892.44
2022-09-10T16:01:20.352Z,101886.31
2022-09-10T16:03:50.160Z,101890.03
2022-09-10T16:06:19.465Z,101886.66
2022-09-10T16:08:50.614Z,101886.81
2022-09-10T16:11:18.742Z,101882.44
2022-09-10T16:13:46.644Z,101881.88
2022-09-10T16:16:17.488Z,101896.00
2022-09-10T16:18:45.657Z,101893.72
2022-09-10T16:21:15.561Z,101887.72
2022-09-10T16:23:43.906Z,101898.63
2022-09-10T16:26:14.858Z,101892.84
2022-09-10T16:28:43.355Z,101894.75
2022-09-10T16:31:16.000Z,101890.66
2022-09-10T16:33:45.531Z,101898.94
2022-09-10T16:36:15.171Z,101894.84
2022-09-10T16:38:43.540Z,101903.09
2022-09-10T16:41:12.043Z,101896.34
2022-09-10T16:43:39.900Z,101890.47
2022-09-10T16:46:09.305Z,101901.13
2022-09-10T16:48:37.762Z,101896.78
2022-09-10T16:51:07.726Z,101899.78
2022-09-10T16:53:36.575Z,101899.88
2022-09-10T16:56:05.231Z,101904.44
2022-09-10T16:58:35.963Z,101893.34
2022-09-10T17:01:03.895Z,101896.09
2022-09-10T17:03:31.949Z,101898.03
2022-09-10T17:06:00.238Z,101905.22
2022-09-10T17:08:30.174Z,101900.03
2022-09-10T17:10:57.799Z,101904.81
2022-09-10T17:13:25.409Z,101897.84
2022-09-10T17:15:54.068Z,101903.34
2022-09-10T17:18:21.682Z,101897.44
2022-09-10T17:20:49.306Z,101894.91
2022-09-10T17:23:18.705Z,101898.72
2022-09-10T17:25:47.930Z,101896.22
2022-09-10T17:28:15.531Z,101901.91
2022-09-10T17:30:43.308Z,101898.69
2022-09-10T17:33:10.910Z,101896.25
2022-09-10T17:35:38.908Z,101894.66
2022-09-10T17:38:08.449Z,101897.41
2022-09-10T17:40:38.425Z,101887.81
2022-09-10T17:43:08.367Z,101893.31
2022-09-10T17:45:38.115Z,101894.59
2022-09-10T17:48:05.726Z,101897.47
2022-09-10T17:50:33.315Z,101887.94
2022-09-10T17:53:00.979Z,101883.75
2022-09-10T17:55:32.998Z,101892.72
2022-09-10T17:58:01.233Z,101891.88
2022-09-10T18:00:30.313Z,101890.19
2022-09-10T18:02:57.920Z,101897.25
2022-09-10T18:05:26.503Z,101894.50
2022-09-10T18:07:54.228Z,101894.72
2022-09-10T18:10:23.046Z,101904.41
2022-09-10T18:12:50.658Z,101895.59
2022-09-10T18:15:19.734Z,101901.19
2022-09-10T18:17:48.705Z,101908.97
2022-09-10T18:20:16.526Z,101905.59
2022-09-10T18:22:44.130Z,101911.19
2022-09-10T18:25:12.118Z,101915.09
2022-09-10T18:27:41.586Z,101915.44
2022-09-10T18:30:09.534Z,101920.25
2022-09-10T18:32:37.251Z,101922.19
2022-09-10T18:35:06.858Z,101916.25
2022-09-10T18:37:34.781Z,101921.72
2022-09-10T18:40:06.088Z,101913.81
2022-09-10T18:42:33.734Z,101922.56
2022-09-10T18:45:01.354Z,101920.88
2022-09-10T18:47:44.041Z,101918.22
2022-09-10T18:50:13.874Z,101921.06
2022-09-10T18:52:41.568Z,101916.75
2022-09-10T18:55:09.593Z,101917.94
2022-09-10T18:57:37.179Z,101924.13
2022-09-10T19:00:05.112Z,101923.50
2022-09-10T19:02:32.880Z,101915.81
2022-09-10T19:05:17.819Z,101922.97
2022-09-10T19:07:50.027Z,101916.13
2022-09-10T19:10:17.769Z,101926.88
2022-09-10T19:12:45.365Z,101922.66
2022-09-10T19:15:12.963Z,101926.22
2022-09-10T19:17:40.558Z,101925.50
2022-09-10T19:20:09.051Z,101923.91
2022-09-10T19:22:37.744Z,101927.50
2022-09-10T19:25:07.535Z,101926.72
2022-09-10T19:27:35.191Z,101919.91
2022-09-10T19:30:02.799Z,101925.16
2022-09-10T19:32:30.666Z,101931.19
2022-09-10T19:34:58.262Z,101921.66
2022-09-10T19:37:25.862Z,101919.25
2022-09-10T19:39:57.443Z,101928.84
2022-09-10T19:42:26.453Z,101923.47
2022-09-10T19:44:54.040Z,101933.16
2022-09-10T19:47:22.546Z,101928.84
2022-09-10T19:49:50.119Z,101927.34
2022-09-10T19:52:18.266Z,101918.06
2022-09-10T19:54:45.866Z,101924.41
2022-09-10T19:57:14.098Z,101927.34
2022-09-10T19:59:43.337Z,101926.69
2022-09-10T20:02:10.964Z,101930.56
2022-09-10T20:04:38.615Z,101934.47
2022-09-10T20:07:06.578Z,101934.00
2022-09-10T20:09:39.212Z,101928.09
2022-09-10T20:12:08.858Z,101931.88
2022-09-10T20:14:37.406Z,101929.63
2022-09-10T20:17:06.401Z,101929.06
2022-09-10T20:19:34.071Z,101936.44
2022-09-10T20:22:01.666Z,101934.19
2022-09-10T20:24:29.262Z,101930.72
2022-09-10T20:26:57.059Z,101933.53
2022-09-10T20:29:25.444Z,101927.44
2022-09-10T20:31:53.391Z,101928.69
2022-09-10T20:34:23.124Z,101932.53
2022-09-10T20:36:52.103Z,101928.22
2022-09-10T20:39:20.639Z,101934.78
2022-09-10T20:41:48.427Z,101933.28
2022-09-10T20:44:17.099Z,101934.22
2022-09-10T20:46:45.310Z,101931.91
2022-09-10T20:49:13.682Z,101929.66
2022-09-10T20:51:43.109Z,101923.72
2022-09-10T20:54:12.654Z,101928.31
2022-09-10T20:56:40.484Z,101926.94
2022-09-10T20:59:08.101Z,101921.84
2022-09-10T21:01:35.787Z,101926.47
2022-09-10T21:04:04.194Z,101918.69
2022-09-10T21:06:33.526Z,101916.97
2022-09-10T21:09:03.198Z,101918.03
2022-09-10T21:11:31.906Z,101916.44
2022-09-10T21:14:00.740Z,101911.19
2022-09-10T21:16:29.108Z,101916.44
2022-09-10T21:18:58.013Z,101912.09
2022-09-10T21:21:26.999Z,101906.22
2022-09-10T21:23:55.222Z,101908.94
2022-09-10T21:26:25.173Z,101916.16
2022-09-10T21:28:53.950Z,101910.81
2022-09-10T21:31:21.602Z,101907.31
2022-09-10T21:33:49.278Z,101910.13
2022-09-10T21:36:18.169Z,101907.59
2022-09-10T21:38:47.539Z,101904.88
2022-09-10T21:41:16.740Z,101903.88
2022-09-10T21:43:46.731Z,101905.53
2022-09-10T21:46:15.294Z,101913.44
2022-09-10T21:48:43.313Z,101911.94
2022-09-10T21:51:13.243Z,101913.63
2022-09-10T21:53:41.639Z,101916.25
2022-09-10T21:56:11.051Z,101913.53
2022-09-10T21:58:38.757Z,101914.56
2022-09-10T22:01:12.358Z,101911.94
2022-09-10T22:03:40.346Z,101914.56
2022-09-10T22:06:08.892Z,101917.38
2022-09-10T22:08:37.677Z,101917.66
2022-09-10T22:11:06.506Z,101911.53
2022-09-10T22:13:34.599Z,101915.03
2022-09-10T22:16:02.396Z,101911.53
2022-09-10T22:18:31.753Z,101914.16
2022-09-10T22:21:00.995Z,101904.63
2022-09-10T22:23:29.926Z,101915.13
2022-09-10T22:26:03.155Z,101911.53
2022-09-10T22:28:34.286Z,101917.66
2022-09-10T22:31:10.079Z,101915.22
2022-09-10T22:33:39.185Z,101918.66
2022-09-10T22:36:10.834Z,101917.75
2022-09-10T22:38:38.498Z,101914.16
2022-09-10T22:41:07.866Z,101920.19
2022-09-10T22:43:35.808Z,101906.09
2022-09-10T22:46:04.525Z,101914.75
2022-09-10T22:48:32.199Z,101917.28
2022-09-10T22:51:02.054Z,101920.81
2022-09-10T22:53:29.634Z,101916.44
2022-09-10T22:55:58.130Z,101914.66
2022-09-10T22:58:26.279Z,101912.03
2022-09-10T23:00:54.370Z,101914.56
2022-09-10T23:03:22.061Z,101912.75
2022-09-10T23:05:49.790Z,101917.19
2022-09-10T23:08:18.823Z,101912.75
2022-09-10T23:10:46.391Z,101909.31
2022-09-10T23:13:13.962Z,101910.22
2022-09-10T23:15:41.713Z,101904.25
2022-09-10T23:18:09.976Z,101909.50
2022-09-10T23:20:37.674Z,101907.69
2022-09-10T23:23:05.231Z,101900.47
2022-09-10T23:25:36.189Z,101910.81
2022-09-10T23:28:07.207Z,101903.00
2022-09-10T23:30:35.957Z,101897.75
2022-09-10T23:33:03.640Z,101898.72
2022-09-10T23:35:31.286Z,101898.72
2022-09-10T23:37:59.025Z,101891.66
2022-09-10T23:40:31.038Z,101894.38
2022-09-10T23:43:02.555Z,101899.63
2022-09-10T23:45:30.355Z,101893.56
2022-09-10T23:47:58.078Z,101896.28
2022-09-10T23:50:25.638Z,101895.41
2022-09-10T23:52:53.250Z,101893.56
2022-09-10T23:55:20.830Z,101887.53
2022-09-10T23:57:48.408Z,101890.16
